Terminal Aerodrome Forecast
Issued by NWS

Home | Current Version | Previous Version | Graphics & Text | Print | Product List | Glossary Off
Versions: 1 2 3 4 5 6 7 8 9 10 11 12 13 14 15 16 17 18

000
FTUS43 KIWX 272300
TAFSBN
TAF
KSBN 272332Z 2800/2824 29012KT 6SM -SHSN OVC035
      TEMPO 2800/2804 3SM -SHSN OVC020
     FM280800 22006KT P6SM SCT015 SCT040 BKN100
     FM281400 17012KT P6SM BKN050=

USA.gov is the U.S. government's official web portal to all federal, state and local government web resources and services.